Time;durP1;ratioP1;P1;durP2;ratioP2;P2;SDS_P1;SDS_P2;PMS_P1;PMS_P2;Temp;Humidity;BMP_temperature;BMP_pressure;BME280_temperature;BME280_humidity;BME280_pressure;Samples;Min_cycle;Max_cycle;Signal;HPM_P1;HPM_P2
2023/05/30 00:02:30;;;;;;;;;30.60;29.60;;;;;17.73;55.36;98861.88;7730296;22;98306;-62
2023/05/30 00:05:35;;;;;;;;;33.60;30.00;;;;;17.77;55.04;98860.22;7731298;22;96350;-62
2023/05/30 00:08:38;;;;;;;;;36.00;31.40;;;;;17.81;54.94;98860.50;7732225;22;96252;-62
2023/05/30 00:11:43;;;;;;;;;31.00;29.60;;;;;17.79;54.81;98866.22;7731958;22;96303;-62
2023/05/30 00:14:47;;;;;;;;;33.25;30.00;;;;;17.77;54.87;98860.22;7731960;22;96216;-62
2023/05/30 00:17:52;;;;;;;;;36.00;30.00;;;;;17.76;55.09;98864.03;7731135;22;96324;-62
2023/05/30 00:20:58;;;;;;;;;32.00;29.00;;;;;17.77;54.70;98862.97;7731577;22;96156;-62
2023/05/30 00:24:04;;;;;;;;;30.60;29.00;;;;;17.79;54.58;98857.25;7731195;22;96602;-62
2023/05/30 00:27:07;;;;;;;;;31.00;29.00;;;;;17.81;54.90;98863.22;7731332;22;96315;-62
2023/05/30 00:30:13;;;;;;;;;30.80;28.80;;;;;17.81;54.50;98861.34;7732127;22;96471;-61
2023/05/30 00:33:17;;;;;;;;;29.60;27.00;;;;;17.77;54.89;98857.50;7731984;22;96174;-62
2023/05/30 00:36:24;;;;;;;;;30.60;29.00;;;;;17.73;55.13;98865.41;7731951;22;96308;-62
2023/05/30 00:39:28;;;;;;;;;30.00;29.00;;;;;17.72;55.19;98869.22;7732156;22;96192;-62
2023/05/30 00:42:31;;;;;;;;;29.80;28.00;;;;;17.70;55.50;98876.00;7731494;22;97011;-62
2023/05/30 00:45:36;;;;;;;;;31.40;26.40;;;;;17.70;55.34;98873.28;7704779;22;96593;-62
2023/05/30 00:48:40;;;;;;;;;28.00;27.00;;;;;17.73;55.07;98878.22;7731021;22;96776;-62
2023/05/30 00:51:47;;;;;;;;;32.50;29.50;;;;;17.71;54.93;98877.66;7731777;22;96812;-62
2023/05/30 00:54:53;;;;;;;;;28.50;27.50;;;;;17.71;54.68;98880.38;7731143;22;96601;-62
2023/05/30 00:57:56;;;;;;;;;31.00;25.75;;;;;17.72;54.93;98882.03;7731518;22;96692;-62
2023/05/30 01:01:01;;;;;;;;;29.80;26.40;;;;;17.62;55.01;98865.63;7731374;22;96428;-62
2023/05/30 01:04:05;;;;;;;;;31.80;27.00;;;;;17.60;55.47;98890.44;7731410;22;97425;-62
2023/05/30 01:07:11;;;;;;;;;27.60;24.60;;;;;17.53;55.41;98872.66;7731418;22;96943;-61
2023/05/30 01:10:16;;;;;;;;;27.40;26.80;;;;;17.46;55.52;98891.16;7731574;22;96278;-62
2023/05/30 01:13:29;;;;;;;;;29.60;27.60;;;;;17.44;55.60;98882.44;7731479;22;96170;-62
2023/05/30 01:16:40;;;;;;;;;32.00;29.00;;;;;17.42;56.02;98887.34;7704261;22;97314;-63
2023/05/30 01:20:07;;;;;;;;;26.60;24.60;;;;;17.38;56.30;98881.59;7732032;22;96339;-62
2023/05/30 01:23:37;;;;;;;;;31.33;28.33;;;;;17.39;56.03;98891.41;7732074;22;96237;-62
2023/05/30 01:26:57;;;;;;;;;30.40;27.20;;;;;17.40;56.21;98882.13;7730483;22;96233;-62
2023/05/30 01:30:04;;;;;;;;;29.00;26.00;;;;;17.41;55.81;98885.69;7730913;22;96285;-62
2023/05/30 01:33:08;;;;;;;;;28.40;23.40;;;;;17.40;55.95;98882.13;7690298;22;98737;-62
2023/05/30 01:36:13;;;;;;;;;25.75;23.75;;;;;17.39;55.99;98883.25;7729424;22;96513;-62
2023/05/30 01:39:16;;;;;;;;;25.00;23.20;;;;;17.39;56.11;98875.06;7756317;22;96710;-62
2023/05/30 01:42:23;;;;;;;;;28.80;25.40;;;;;17.51;55.72;98885.72;7729750;22;96463;-62
2023/05/30 01:45:40;;;;;;;;;31.00;28.40;;;;;17.48;55.76;98872.66;7704669;22;98231;-62
2023/05/30 01:48:56;;;;;;;;;27.60;25.00;;;;;17.52;55.94;98869.13;7728852;22;96605;-62
2023/05/30 01:52:02;;;;;;;;;28.00;25.25;;;;;17.53;55.73;98872.66;7731112;22;96251;-62
2023/05/30 01:55:09;;;;;;;;;26.25;24.25;;;;;17.53;56.07;98873.50;7731272;22;96516;-62
2023/05/30 01:58:18;;;;;;;;;26.20;25.20;;;;;17.53;56.08;98870.75;7729045;22;96310;-62
2023/05/30 02:01:27;;;;;;;;;31.00;30.00;;;;;17.54;56.00;98874.31;7730471;22;96310;-62
2023/05/30 02:04:31;;;;;;;;;24.50;23.50;;;;;17.55;55.73;98867.75;7732725;22;96165;-63
2023/05/30 02:07:35;;;;;;;;;24.00;22.25;;;;;17.56;55.68;98875.66;7731920;22;96505;-62
2023/05/30 02:10:38;;;;;;;;;26.20;23.20;;;;;17.55;55.69;98862.31;7731926;22;96779;-62
2023/05/30 02:13:41;;;;;;;;;27.20;24.00;;;;;17.58;55.66;98864.50;7732226;22;96431;-62
2023/05/30 02:16:46;;;;;;;;;27.60;26.60;;;;;17.53;55.78;98867.22;7732969;22;96481;-61
2023/05/30 02:19:53;;;;;;;;;28.20;27.20;;;;;17.41;56.19;98855.72;7732529;22;96175;-62
2023/05/30 02:22:56;;;;;;;;;24.00;21.00;;;;;17.45;56.52;98867.72;7732378;22;96861;-62
2023/05/30 02:26:00;;;;;;;;;27.60;25.60;;;;;17.35;56.61;98870.41;7731361;22;96629;-62
2023/05/30 02:29:04;;;;;;;;;26.20;23.20;;;;;17.34;56.79;98869.59;7732966;22;96698;-62
2023/05/30 02:32:10;;;;;;;;;28.25;25.00;;;;;17.35;56.40;98878.59;7674999;22;98524;-62
2023/05/30 02:35:14;;;;;;;;;25.20;23.40;;;;;17.36;56.30;98881.03;7730589;22;98286;-63
2023/05/30 02:38:18;;;;;;;;;30.00;27.00;;;;;17.42;56.14;98877.25;7731180;22;96821;-62
2023/05/30 02:41:23;;;;;;;;;33.80;30.20;;;;;17.47;56.02;98887.34;7756972;22;97173;-63
2023/05/30 02:44:26;;;;;;;;;29.00;26.40;;;;;17.50;55.82;98882.19;7732114;22;96229;-62
2023/05/30 02:47:31;;;;;;;;;26.00;25.00;;;;;17.54;55.81;98886.03;7731226;22;96299;-62
2023/05/30 02:50:34;;;;;;;;;37.00;29.75;;;;;17.57;55.62;98892.84;7730967;22;96479;-62
2023/05/30 02:53:41;;;;;;;;;36.00;32.00;;;;;17.58;55.58;98895.31;7705796;22;96756;-62
2023/05/30 02:56:45;;;;;;;;;32.00;30.00;;;;;17.58;55.18;98898.03;7730777;22;96439;-62
2023/05/30 03:10:49;;;;;;;;;35.60;32.00;;;;;17.44;55.56;98896.91;7652690;22;98991;-63
2023/05/30 03:13:53;;;;;;;;;30.40;28.40;;;;;17.38;56.02;98897.13;7756736;22;96131;-63
2023/05/30 03:16:57;;;;;;;;;35.67;30.67;;;;;17.38;55.96;98895.22;7731093;22;96420;-63
2023/05/30 03:20:01;;;;;;;;;33.25;29.50;;;;;17.39;56.37;98891.41;7731710;22;96261;-63
2023/05/30 03:23:05;;;;;;;;;32.40;30.00;;;;;17.40;56.42;98898.50;7757606;22;97061;-63
2023/05/30 03:26:11;;;;;;;;;32.60;29.00;;;;;17.44;56.48;98896.06;7757516;22;96765;-63
2023/05/30 03:29:15;;;;;;;;;25.50;24.75;;;;;17.50;56.10;98905.88;7732127;22;96234;-63
2023/05/30 03:32:19;;;;;;;;;27.00;26.00;;;;;17.54;56.27;98910.56;7731119;22;96216;-63
2023/05/30 03:35:22;;;;;;;;;26.25;24.25;;;;;17.61;55.70;98910.34;7732608;22;96493;-63
2023/05/30 03:38:26;;;;;;;;;25.40;23.00;;;;;17.65;55.75;98916.91;7705857;22;98266;-63
2023/05/30 03:41:30;;;;;;;;;28.00;25.20;;;;;17.73;55.55;98911.78;7730922;22;96444;-63
2023/05/30 03:44:34;;;;;;;;;28.40;27.60;;;;;17.75;54.87;98908.75;7731536;22;96765;-63
2023/05/30 03:47:37;;;;;;;;;25.00;22.60;;;;;17.92;55.00;98924.91;7730697;22;98389;-63
2023/05/30 03:50:43;;;;;;;;;24.20;22.60;;;;;18.02;54.56;98930.41;7706906;22;96644;-63
2023/05/30 03:53:46;;;;;;;;;22.00;19.40;;;;;18.06;54.14;98921.41;7708039;22;98267;-62
2023/05/30 03:56:51;;;;;;;;;24.80;22.00;;;;;18.17;54.05;98925.81;7731758;22;96318;-63
2023/05/30 03:59:54;;;;;;;;;21.00;20.00;;;;;18.19;53.53;98920.88;7734361;22;96194;-63
2023/05/30 04:02:59;;;;;;;;;24.00;21.60;;;;;18.06;53.38;98890.56;7688840;22;99038;-63
2023/05/30 04:06:03;;;;;;;;;20.50;19.50;;;;;18.38;52.75;98934.81;7694205;22;96276;-63
2023/05/30 04:09:07;;;;;;;;;22.00;20.50;;;;;18.39;52.75;98930.19;7693682;22;98281;-63
2023/05/30 04:12:12;;;;;;;;;23.00;20.00;;;;;18.46;52.47;98937.03;7695206;22;97361;-62
2023/05/30 04:15:15;;;;;;;;;20.00;19.20;;;;;18.50;52.16;98945.50;7670029;22;98939;-63
2023/05/30 04:18:20;;;;;;;;;20.20;18.00;;;;;18.58;52.02;98959.44;7669260;22;98379;-62
2023/05/30 04:21:23;;;;;;;;;22.00;20.50;;;;;18.70;52.30;98956.47;7669569;22;96635;-63
2023/05/30 04:24:26;;;;;;;;;20.75;20.25;;;;;18.74;51.73;98959.47;7695295;22;96786;-64
2023/05/30 04:27:31;;;;;;;;;22.00;21.00;;;;;18.80;51.93;98961.09;7668977;22;98531;-63
2023/05/30 04:30:35;;;;;;;;;18.60;18.60;;;;;18.79;51.98;98964.91;7670030;22;96596;-63
2023/05/30 04:33:39;;;;;;;;;21.60;20.00;;;;;18.87;51.65;98964.38;7694343;22;96676;-63
2023/05/30 04:36:44;;;;;;;;;22.80;21.00;;;;;18.94;51.59;98963.00;7720319;22;96177;-63
2023/05/30 04:39:47;;;;;;;;;26.80;24.80;;;;;18.95;52.01;98961.94;7694189;22;97285;-63
2023/05/30 04:42:52;;;;;;;;;24.60;22.20;;;;;19.07;51.85;98975.28;7694103;22;96279;-63
2023/05/30 04:45:55;;;;;;;;;25.00;23.00;;;;;19.06;52.34;98965.44;7668782;22;97855;-63
2023/05/30 04:49:15;;;;;;;;;23.80;22.20;;;;;19.07;52.16;98972.56;7719825;22;96168;-63
2023/05/30 04:52:19;;;;;;;;;25.00;22.50;;;;;19.16;52.21;98973.63;7694814;22;96157;-64
2023/05/30 04:55:23;;;;;;;;;28.40;26.60;;;;;19.17;51.75;98971.72;7694912;22;96009;-63
2023/05/30 04:58:28;;;;;;;;;28.40;25.20;;;;;19.32;51.59;98972.53;7694973;22;96180;-62
2023/05/30 05:01:33;;;;;;;;;27.00;25.00;;;;;19.39;51.95;98985.91;7710983;22;96243;-63
2023/05/30 05:04:37;;;;;;;;;28.00;25.00;;;;;19.43;51.91;98978.78;7745587;22;96769;-63
2023/05/30 05:07:41;;;;;;;;;25.25;24.25;;;;;19.53;51.46;98970.59;7772075;22;96196;-63
2023/05/30 05:10:45;;;;;;;;;27.33;24.00;;;;;19.68;51.43;98976.03;7772698;22;96525;-63
2023/05/30 05:13:49;;;;;;;;;26.60;25.00;;;;;19.71;51.01;98980.09;7770662;22;96491;-63
2023/05/30 05:16:53;;;;;;;;;27.00;25.60;;;;;19.78;51.31;98981.47;7772035;22;96176;-63
2023/05/30 05:19:56;;;;;;;;;29.60;27.00;;;;;19.80;51.49;98990.19;7772413;22;96204;-63
2023/05/30 05:23:02;;;;;;;;;32.50;30.00;;;;;19.97;50.85;98992.59;7769787;22;96580;-64
2023/05/30 05:26:05;;;;;;;;;30.00;28.00;;;;;19.99;50.63;98987.66;7769622;22;96771;-64
2023/05/30 05:29:10;;;;;;;;;32.80;28.00;;;;;20.06;50.82;98990.91;7770509;22;96293;-64
2023/05/30 05:32:14;;;;;;;;;29.00;28.00;;;;;20.13;50.57;99002.38;7769115;22;96962;-64
2023/05/30 05:35:17;;;;;;;;;33.60;28.00;;;;;20.18;50.37;98996.88;7742768;22;96647;-64
2023/05/30 05:38:20;;;;;;;;;34.75;30.25;;;;;20.30;50.28;99002.88;7770002;22;96059;-64
2023/05/30 05:41:24;;;;;;;;;28.25;26.25;;;;;20.24;50.51;99003.13;7743031;22;98368;-63
2023/05/30 05:44:29;;;;;;;;;33.00;30.00;;;;;20.27;50.08;98994.38;7767929;22;96872;-63
2023/05/30 05:47:33;;;;;;;;;33.00;31.00;;;;;20.42;50.29;99008.03;7767828;22;96193;-63
2023/05/30 05:50:37;;;;;;;;;29.40;26.60;;;;;20.60;49.48;99001.88;7742971;22;98279;-63
2023/05/30 05:53:40;;;;;;;;;31.00;29.60;;;;;20.83;49.07;98999.50;7770960;22;96503;-63
2023/05/30 05:56:43;;;;;;;;;33.00;29.25;;;;;20.92;48.90;99006.81;7718958;22;96293;-63
2023/05/30 05:59:48;;;;;;;;;31.80;28.80;;;;;21.09;49.16;99004.50;7771682;22;96243;-63
2023/05/30 06:02:51;;;;;;;;;29.40;27.40;;;;;21.26;48.46;98998.63;7769297;22;96403;-63
2023/05/30 06:05:55;;;;;;;;;32.60;27.40;;;;;21.38;47.63;99006.47;7770314;22;96182;-63
2023/05/30 06:08:59;;;;;;;;;30.00;29.00;;;;;21.54;47.65;99008.78;7770343;22;96355;-63
2023/05/30 06:12:02;;;;;;;;;33.60;30.00;;;;;21.64;47.43;99012.53;7767680;22;96771;-64
2023/05/30 06:15:12;;;;;;;;;27.00;25.00;;;;;21.97;46.61;99015.19;7743346;22;96363;-63
2023/05/30 06:18:16;;;;;;;;;27.00;25.40;;;;;22.31;46.42;99015.03;7771450;22;96300;-63
2023/05/30 06:21:19;;;;;;;;;29.00;28.00;;;;;22.56;45.22;99018.53;7771019;22;96272;-63
2023/05/30 06:24:22;;;;;;;;;31.60;27.00;;;;;22.83;43.99;99021.44;7767885;22;96724;-63
2023/05/30 06:27:25;;;;;;;;;29.00;26.40;;;;;22.89;43.29;99021.06;7768341;22;96321;-63
2023/05/30 06:30:30;;;;;;;;;25.00;24.00;;;;;22.91;43.27;99037.28;7766782;22;98278;-63
2023/05/30 06:33:33;;;;;;;;;24.80;22.40;;;;;23.04;43.12;99031.00;7769040;22;96308;-63
2023/05/30 06:36:37;;;;;;;;;21.00;18.00;;;;;23.18;42.06;99026.38;7767287;22;96454;-63
2023/05/30 06:39:40;;;;;;;;;20.80;18.80;;;;;23.40;40.47;99034.00;7741140;22;98329;-63
2023/05/30 06:42:44;;;;;;;;;17.80;16.20;;;;;23.54;39.56;99034.88;7743801;22;98282;-62
2023/05/30 06:45:48;;;;;;;;;17.60;17.00;;;;;23.85;39.56;99037.84;7771934;22;96182;-64
2023/05/30 06:48:52;;;;;;;;;17.00;17.00;;;;;24.15;39.36;99042.75;7771289;22;97555;-62
2023/05/30 06:51:55;;;;;;;;;17.00;16.00;;;;;24.39;38.23;99047.25;7772876;22;96231;-63
2023/05/30 06:54:59;;;;;;;;;17.60;16.60;;;;;24.56;37.50;99050.19;7772105;22;96219;-63
2023/05/30 06:58:06;;;;;;;;;21.20;19.00;;;;;24.69;38.42;99057.59;7773160;22;96594;-63
2023/05/30 07:01:11;;;;;;;;;20.00;18.40;;;;;24.75;38.49;99047.28;7773040;22;96467;-63
2023/05/30 07:04:14;;;;;;;;;17.20;17.20;;;;;24.78;38.32;99052.97;7747278;22;98250;-63
2023/05/30 07:07:18;;;;;;;;;19.25;17.25;;;;;24.95;38.51;99039.38;7774257;22;96200;-63
2023/05/30 07:10:21;;;;;;;;;23.67;19.67;;;;;25.13;38.11;99053.31;7771928;22;96181;-63
2023/05/30 07:13:25;;;;;;;;;19.00;17.00;;;;;24.99;37.84;99054.19;7745021;22;96690;-63
2023/05/30 07:16:29;;;;;;;;;20.20;19.00;;;;;25.09;39.15;99055.06;7772421;22;96291;-63
2023/05/30 07:19:33;;;;;;;;;22.00;20.00;;;;;25.38;38.60;99055.44;7773941;22;96927;-62
2023/05/30 07:22:37;;;;;;;;;19.25;18.00;;;;;25.60;37.63;99049.13;7746846;22;96190;-63
2023/05/30 07:25:41;;;;;;;;;19.60;18.00;;;;;25.77;37.09;99057.50;7773850;22;96183;-63
2023/05/30 07:28:44;;;;;;;;;22.00;19.00;;;;;25.81;37.01;99058.47;7774133;22;96196;-63
2023/05/30 07:31:49;;;;;;;;;17.20;16.00;;;;;25.71;36.11;99050.47;7773198;22;96196;-63
2023/05/30 07:34:52;;;;;;;;;17.60;16.00;;;;;25.78;36.98;99062.69;7773900;22;96215;-64
2023/05/30 07:37:56;;;;;;;;;20.00;17.75;;;;;25.91;37.06;99062.91;7746814;22;96760;-63
2023/05/30 07:40:59;;;;;;;;;22.00;18.75;;;;;25.93;37.15;99060.66;7773603;22;96172;-63
2023/05/30 07:44:02;;;;;;;;;19.00;16.20;;;;;26.08;38.00;99054.72;7772040;22;96269;-63
2023/05/30 07:47:07;;;;;;;;;19.00;17.00;;;;;26.38;36.92;99061.34;7746623;22;96241;-63
2023/05/30 07:50:11;;;;;;;;;18.40;17.00;;;;;26.52;35.82;99060.06;7772696;22;96055;-62
2023/05/30 07:53:14;;;;;;;;;17.00;16.00;;;;;26.72;36.34;99053.13;7773173;22;96187;-62
2023/05/30 07:56:18;;;;;;;;;18.00;17.00;;;;;26.96;35.25;99053.47;7773509;22;96218;-62
2023/05/30 07:59:21;;;;;;;;;15.20;13.60;;;;;27.22;35.47;99053.44;7746847;22;96829;-63
2023/05/30 08:02:26;;;;;;;;;18.75;17.50;;;;;27.27;34.33;99056.06;7772817;22;96321;-63
2023/05/30 08:05:30;;;;;;;;;19.00;16.80;;;;;27.33;34.89;99051.97;7773035;22;96504;-63
2023/05/30 08:08:33;;;;;;;;;22.00;18.50;;;;;27.36;34.53;99067.16;7746390;22;98360;-63
2023/05/30 08:11:36;;;;;;;;;18.40;17.00;;;;;27.49;35.48;99069.75;7772613;22;96202;-64
2023/05/30 08:14:40;;;;;;;;;17.00;16.80;;;;;27.69;34.53;99067.44;7746037;22;98388;-64
2023/05/30 08:17:45;;;;;;;;;15.00;14.00;;;;;28.01;33.42;99069.59;7773238;22;96203;-63
2023/05/30 08:20:49;;;;;;;;;17.50;15.50;;;;;28.28;32.89;99065.59;7772969;22;96194;-63
2023/05/30 08:23:53;;;;;;;;;19.75;18.50;;;;;28.33;33.48;99057.91;7771577;22;96275;-63
2023/05/30 08:27:01;;;;;;;;;18.00;17.00;;;;;28.44;32.50;99059.13;7771233;22;96228;-63
2023/05/30 08:30:05;;;;;;;;;15.50;14.00;;;;;28.79;33.23;99059.75;7772885;22;96680;-63
2023/05/30 08:33:10;;;;;;;;;16.80;16.40;;;;;29.16;32.56;99065.53;7771683;22;96665;-64
2023/05/30 08:36:14;;;;;;;;;15.00;14.20;;;;;29.34;31.38;99060.63;7770659;22;96702;-63
2023/05/30 08:39:18;;;;;;;;;11.00;10.80;;;;;29.44;31.62;99069.38;7770784;22;96236;-63
2023/05/30 08:42:22;;;;;;;;;12.00;11.00;;;;;29.48;30.43;99072.25;7771346;22;96137;-64
2023/05/30 08:45:25;;;;;;;;;11.80;11.20;;;;;29.62;31.04;99070.00;7771539;22;96998;-63
2023/05/30 08:48:34;;;;;;;;;11.00;11.00;;;;;29.49;29.95;99071.94;7772665;22;96679;-64
2023/05/30 08:51:42;;;;;;;;;9.00;9.00;;;;;29.50;30.07;99056.06;7772911;22;96134;-63
2023/05/30 08:54:54;;;;;;;;;13.00;12.00;;;;;29.95;30.92;99072.78;7772939;22;96197;-63
2023/05/30 08:58:05;;;;;;;;;13.00;12.00;;;;;30.34;31.08;99077.69;7772060;22;97370;-63
2023/05/30 09:01:10;;;;;;;;;10.00;10.00;;;;;30.42;29.53;99078.72;7771383;22;96457;-64
2023/05/30 09:04:15;;;;;;;;;9.00;9.00;;;;;30.41;28.46;99068.72;7772382;22;96277;-64
2023/05/30 09:07:21;;;;;;;;;8.60;8.00;;;;;30.23;27.18;99070.13;7772057;22;96228;-64
2023/05/30 09:10:24;;;;;;;;;8.00;6.50;;;;;30.21;28.59;99081.59;7747253;22;96214;-64
2023/05/30 09:13:30;;;;;;;;;8.00;7.75;;;;;30.23;27.45;99090.41;7771393;22;96230;-63
2023/05/30 09:16:33;;;;;;;;;7.00;6.60;;;;;30.34;28.02;99083.25;7771906;22;96209;-63
2023/05/30 09:19:39;;;;;;;;;6.00;6.00;;;;;30.70;28.81;99082.41;7772779;22;96304;-63
2023/05/30 09:22:43;;;;;;;;;9.00;8.00;;;;;30.99;28.26;99078.53;7771429;22;97603;-63
2023/05/30 09:25:48;;;;;;;;;11.00;9.00;;;;;31.42;28.68;99083.44;7745378;22;96163;-64
2023/05/30 09:28:51;;;;;;;;;8.00;8.00;;;;;31.64;27.40;99071.72;7771805;22;96302;-63
2023/05/30 09:31:56;;;;;;;;;7.00;6.60;;;;;31.90;26.73;99071.25;7745087;22;97986;-63
2023/05/30 09:35:06;;;;;;;;;12.00;11.00;;;;;32.21;26.37;99071.25;7770914;22;96889;-63
2023/05/30 09:38:09;;;;;;;;;8.40;7.00;;;;;32.51;26.17;99065.19;7770894;22;96194;-64
2023/05/30 09:41:13;;;;;;;;;8.00;8.00;;;;;32.69;25.14;99060.88;7770514;22;96757;-63
2023/05/30 09:44:19;;;;;;;;;10.33;10.00;;;;;32.91;24.71;99060.19;7771229;22;96249;-63
2023/05/30 09:47:22;;;;;;;;;8.20;8.20;;;;;32.82;24.94;99067.97;7772082;22;96172;-64
2023/05/30 09:50:27;;;;;;;;;10.00;9.00;;;;;32.91;25.48;99073.34;7771745;22;96223;-64
2023/05/30 09:53:33;;;;;;;;;7.60;7.60;;;;;32.63;24.43;99070.69;7772034;22;96761;-63
2023/05/30 09:56:38;;;;;;;;;8.00;7.50;;;;;32.57;24.79;99070.16;7772426;22;96175;-62
2023/05/30 09:59:41;;;;;;;;;7.20;7.00;;;;;32.70;24.46;99067.25;7771514;22;96155;-63
2023/05/30 10:02:45;;;;;;;;;6.20;6.20;;;;;32.61;24.36;99073.81;7769288;22;96264;-63
2023/05/30 10:05:50;;;;;;;;;10.00;9.00;;;;;32.85;24.66;99072.00;7745235;22;96856;-64
2023/05/30 10:08:54;;;;;;;;;9.67;8.00;;;;;32.63;23.42;99065.94;7767375;22;96210;-64
2023/05/30 10:12:03;;;;;;;;;5.80;5.20;;;;;32.10;24.44;99077.72;7766791;22;96599;-63
2023/05/30 10:15:09;;;;;;;;;8.00;8.00;;;;;31.83;24.83;99084.97;7741806;22;96617;-61
2023/05/30 10:18:16;;;;;;;;;10.40;9.00;;;;;31.72;25.07;99081.91;7768618;22;96437;-61
2023/05/30 10:21:23;;;;;;;;;8.80;8.00;;;;;31.59;24.59;99076.75;7741373;22;96618;-62
2023/05/30 10:24:26;;;;;;;;;12.00;10.00;;;;;31.46;25.56;99080.75;7744521;22;98310;-61
2023/05/30 10:27:35;;;;;;;;;10.00;9.25;;;;;31.35;25.32;99077.66;7769888;22;96178;-62
2023/05/30 10:30:40;;;;;;;;;7.00;7.00;;;;;31.62;26.02;99067.69;7770023;22;96233;-62
2023/05/30 10:33:50;;;;;;;;;8.40;7.40;;;;;31.69;25.70;99067.88;7743217;22;99468;-61
2023/05/30 10:37:01;;;;;;;;;9.00;8.40;;;;;31.63;25.26;99075.69;7767933;22;96885;-62
2023/05/30 10:40:17;;;;;;;;;7.60;7.00;;;;;31.50;24.15;99057.38;7770324;22;96181;-62
2023/05/30 10:43:37;;;;;;;;;8.20;7.80;;;;;31.40;25.15;99069.03;7743545;22;96591;-62
2023/05/30 10:46:51;;;;;;;;;8.00;8.00;;;;;31.16;25.54;99064.38;7745870;22;98372;-63
2023/05/30 10:50:00;;;;;;;;;8.00;7.00;;;;;31.00;26.59;99066.25;7772362;22;96217;-61
2023/05/30 10:53:12;;;;;;;;;6.00;6.00;;;;;30.77;25.98;99065.97;7772258;22;96188;-62
2023/05/30 10:56:36;;;;;;;;;8.00;8.00;;;;;30.52;26.01;99062.41;7746439;22;98294;-61
2023/05/30 10:59:40;;;;;;;;;8.00;7.75;;;;;30.35;26.04;99062.59;7773811;22;96201;-61
2023/05/30 11:02:43;;;;;;;;;9.00;8.00;;;;;29.50;26.57;98968.00;7739994;22;98752;-61
2023/05/30 11:05:55;;;;;;;;;9.00;8.00;;;;;30.64;26.67;99058.81;7773752;22;96203;-62
2023/05/30 11:09:07;;;;;;;;;9.00;8.00;;;;;31.21;26.33;99060.53;7773876;22;96197;-62
2023/05/30 11:12:22;;;;;;;;;8.00;8.00;;;;;31.28;25.02;99060.72;7772813;22;96251;-62
2023/05/30 11:15:34;;;;;;;;;7.00;6.00;;;;;31.27;25.95;99061.91;7773618;22;96746;-62
2023/05/30 11:18:41;;;;;;;;;7.00;7.00;;;;;31.18;25.33;99056.47;7773321;22;96745;-62
2023/05/30 11:22:00;;;;;;;;;7.00;6.60;;;;;31.37;24.48;99062.19;7745850;22;98376;-62
2023/05/30 11:25:24;;;;;;;;;7.00;6.25;;;;;31.54;24.51;99063.84;7745904;22;98390;-62
2023/05/30 11:28:34;;;;;;;;;5.40;5.00;;;;;31.93;24.51;99061.34;7772121;22;96275;-61
2023/05/30 11:31:40;;;;;;;;;8.00;7.00;;;;;31.87;23.63;99057.19;7719621;22;96837;-62
2023/05/30 11:34:43;;;;;;;;;7.00;7.00;;;;;31.72;24.13;99056.81;7743382;22;96587;-62
2023/05/30 11:37:47;;;;;;;;;7.00;7.00;;;;;31.44;24.45;99056.00;7770564;22;96277;-62
2023/05/30 11:40:53;;;;;;;;;5.80;5.80;;;;;31.21;24.27;99046.59;7771333;22;96435;-61
2023/05/30 11:43:58;;;;;;;;;6.20;6.00;;;;;31.07;24.56;99049.78;7743553;22;96444;-62
2023/05/30 11:47:04;;;;;;;;;8.00;7.40;;;;;30.84;24.22;99034.72;7771068;22;96851;-62
2023/05/30 11:50:15;;;;;;;;;7.25;7.00;;;;;30.68;24.26;99034.66;7771281;22;96243;-62
2023/05/30 11:53:19;;;;;;;;;9.50;8.00;;;;;30.74;24.79;99051.94;7771328;22;96186;-62
2023/05/30 11:56:29;;;;;;;;;9.25;8.25;;;;;30.62;25.28;99054.72;7773089;22;96211;-61
2023/05/30 11:59:33;;;;;;;;;8.20;8.00;;;;;30.46;25.52;99044.31;7773508;22;96179;-62
2023/05/30 12:02:37;;;;;;;;;8.00;7.00;;;;;30.37;24.96;99045.56;7772623;22;96042;-62
2023/05/30 12:05:40;;;;;;;;;7.00;7.00;;;;;30.29;25.26;99052.06;7773707;22;96228;-61
2023/05/30 12:08:45;;;;;;;;;6.60;6.60;;;;;30.17;25.22;99058.44;7746558;22;96745;-62
2023/05/30 12:11:56;;;;;;;;;7.80;7.00;;;;;30.19;24.88;99055.31;7773557;22;96274;-62
2023/05/30 12:15:04;;;;;;;;;9.20;9.20;;;;;30.21;25.56;99058.53;7773732;22;96569;-62
2023/05/30 12:18:10;;;;;;;;;8.60;8.60;;;;;30.19;25.82;99044.19;7773596;22;96822;-62
2023/05/30 12:21:14;;;;;;;;;7.60;7.00;;;;;30.40;25.44;99045.66;7747152;22;96215;-61
2023/05/30 12:24:17;;;;;;;;;6.00;6.00;;;;;30.78;25.12;99047.28;7772541;22;96825;-62
2023/05/30 12:27:23;;;;;;;;;8.00;8.00;;;;;30.91;24.81;99041.34;7773256;22;96515;-62
2023/05/30 12:34:04;;;;;;;;;8.40;8.40;;;;;31.55;24.07;99045.97;7637195;22;98960;-63
2023/05/30 12:37:08;;;;;;;;;5.00;5.00;;;;;31.83;24.35;99041.19;7773009;22;96663;-64
2023/05/30 12:40:12;;;;;;;;;7.00;6.00;;;;;32.01;23.77;99044.41;7772432;22;96125;-63
2023/05/30 12:43:17;;;;;;;;;7.60;7.00;;;;;32.19;24.34;99037.34;7772568;22;96256;-63
2023/05/30 12:46:22;;;;;;;;;6.00;6.00;;;;;32.13;23.18;99041.59;7746317;22;97364;-63
2023/05/30 12:49:26;;;;;;;;;7.00;7.00;;;;;32.28;22.70;99044.72;7772320;22;96259;-64
2023/05/30 12:52:30;;;;;;;;;6.00;6.00;;;;;32.23;22.80;99037.44;7745111;22;96224;-63
2023/05/30 12:55:34;;;;;;;;;8.60;8.00;;;;;32.20;21.52;99035.38;7772407;22;96384;-63
2023/05/30 12:58:40;;;;;;;;;7.00;7.00;;;;;32.25;22.62;99044.25;7771124;22;96038;-62
2023/05/30 13:01:44;;;;;;;;;7.00;6.00;;;;;32.32;22.73;99048.41;7772872;22;96282;-64
2023/05/30 13:04:48;;;;;;;;;5.00;5.00;;;;;32.20;22.37;99024.22;7771703;22;96218;-64
2023/05/30 13:07:51;;;;;;;;;5.00;5.00;;;;;32.09;22.68;99037.06;7742377;22;96509;-63
2023/05/30 13:10:54;;;;;;;;;7.00;6.00;;;;;31.85;22.30;99043.63;7771590;22;96201;-64
2023/05/30 13:13:59;;;;;;;;;6.00;5.00;;;;;31.59;22.88;99035.75;7771312;22;96365;-63
2023/05/30 13:17:03;;;;;;;;;6.00;6.00;;;;;31.35;22.47;99035.84;7769057;22;96194;-63
2023/05/30 13:20:08;;;;;;;;;6.00;6.00;;;;;31.26;23.21;99033.22;7741107;22;96650;-64
2023/05/30 13:23:11;;;;;;;;;7.40;7.40;;;;;31.10;23.18;99034.34;7736322;22;96492;-64
2023/05/30 13:26:14;;;;;;;;;8.00;7.00;;;;;30.76;23.38;99014.22;7737385;22;96191;-64
2023/05/30 13:29:19;;;;;;;;;5.60;5.00;;;;;30.66;23.70;99025.84;7736686;22;96294;-64
2023/05/30 13:32:23;;;;;;;;;4.75;4.00;;;;;30.47;24.05;99034.81;7737063;22;97344;-64
2023/05/30 13:35:26;;;;;;;;;7.00;6.00;;;;;30.25;23.98;99024.13;7736137;22;96252;-64
2023/05/30 13:38:29;;;;;;;;;5.25;4.25;;;;;30.19;24.24;99035.84;7737261;22;96184;-65
2023/05/30 13:41:33;;;;;;;;;5.00;5.00;;;;;30.05;24.44;99028.66;7683507;22;99064;-64
2023/05/30 13:44:37;;;;;;;;;5.00;5.00;;;;;29.95;23.92;99014.41;7735523;22;96269;-64
2023/05/30 13:47:41;;;;;;;;;7.00;7.00;;;;;30.17;24.46;99019.50;7736088;22;96649;-64
2023/05/30 13:50:44;;;;;;;;;5.00;5.00;;;;;30.27;24.17;99021.81;7736178;22;96923;-64
2023/05/30 13:53:48;;;;;;;;;5.00;5.00;;;;;30.25;23.61;99020.56;7736582;22;96502;-64
2023/05/30 13:56:54;;;;;;;;;5.60;5.00;;;;;30.39;24.38;99013.47;7736921;22;96444;-64
2023/05/30 13:59:59;;;;;;;;;5.00;5.00;;;;;30.57;24.39;99024.34;7737600;22;96550;-65
2023/05/30 14:03:03;;;;;;;;;6.00;5.00;;;;;30.61;24.10;99023.31;7709475;22;96799;-64
2023/05/30 14:06:07;;;;;;;;;5.00;5.00;;;;;30.75;24.17;99028.50;7737406;22;96264;-64
2023/05/30 14:09:11;;;;;;;;;6.00;5.00;;;;;30.86;24.46;99018.50;7735874;22;96518;-64
2023/05/30 14:12:14;;;;;;;;;6.40;6.40;;;;;31.15;24.48;99031.28;7737893;22;96323;-64
2023/05/30 14:15:20;;;;;;;;;5.75;5.00;;;;;31.38;24.69;99035.13;7737838;22;96497;-64
2023/05/30 14:18:23;;;;;;;;;6.40;5.40;;;;;31.54;23.94;99037.97;7738326;22;97440;-64
2023/05/30 14:21:26;;;;;;;;;6.00;5.80;;;;;31.62;22.93;99048.19;7710294;22;98679;-64
2023/05/30 14:24:30;;;;;;;;;8.00;7.00;;;;;31.59;23.64;99040.53;7709142;22;96421;-65
2023/05/30 14:27:33;;;;;;;;;8.00;6.50;;;;;31.55;23.77;99042.38;7736760;22;96217;-64
2023/05/30 14:30:38;;;;;;;;;6.00;6.00;;;;;31.34;22.28;99043.41;7710642;22;96289;-64
2023/05/30 14:33:41;;;;;;;;;5.50;5.00;;;;;30.96;22.66;99040.28;7738113;22;96211;-64
2023/05/30 14:36:45;;;;;;;;;6.00;5.40;;;;;30.58;23.55;99048.25;7737504;22;96164;-64